Pagina principale
METAR-TAF:

METAR-TAF

Aeroporti :

Harrisburg, Pennsylvania, Stati Uniti

latitudine: 40-13-02N, longitudine: 076-51-05W, altezza: 106 m

Osservazione

Il bollettino è stato emesso 14 minuti fa, alle 07:56 UTC
Vento calmo
Temperature 17°C
Umidità 77%
Pressione 1020 hPa
Visibilità: 16.1 km
Cielo sereno

METAR: KCXY 240756Z AUTO 00000KT 10SM CLR 17/13 A3012 RMK AO2 SLP198 T01670133

Ora: 04:10 (08:10 UTC)


TAF: mancante

Osservazioni e previsioni meteorologiche di più di 4000 aeroporti (messaggi METAR e TAF).

Le stazioni disponibili sono rappresentate dai dischi gialli e rossi sulla carta.

Puntare il mouse per vedere il nome della stazione.

Clicca sopra per visualizzare le osservazioni e previsioni meteorologiche.

Per cambiare la mappa : fare clic sui pulsanti verdi con una croce nera per ingrandire, il pulsante verde con un trattino per diminuire, o sulla freccia verde per le mappe adiacenti.


METAR-TAF: